createdAt,value
2023-04-12T00:01:18.936Z,11.30
2023-04-12T00:03:50.941Z,11.30
2023-04-12T00:06:27.578Z,15.40
2023-04-12T00:08:54.290Z,11.30
2023-04-12T00:11:21.253Z,13.00
2023-04-12T00:13:47.890Z,11.30
2023-04-12T00:16:19.529Z,11.20
2023-04-12T00:18:46.229Z,11.20
2023-04-12T00:21:13.334Z,11.10
2023-04-12T00:23:40.063Z,11.10
2023-04-12T00:26:09.251Z,11.70
2023-04-12T00:28:35.924Z,11.20
2023-04-12T00:33:33.306Z,11.10
2023-04-12T00:35:59.996Z,11.20
2023-04-12T00:38:29.135Z,11.20
2023-04-12T00:40:58.429Z,11.10
2023-04-12T00:43:27.822Z,11.10
2023-04-12T00:45:59.086Z,11.10
2023-04-12T00:48:27.321Z,11.00
2023-04-12T00:50:57.702Z,11.00
2023-04-12T00:53:24.401Z,11.00
2023-04-12T00:58:24.184Z,11.00
2023-04-12T01:00:52.845Z,11.40
2023-04-12T01:03:23.634Z,11.00
2023-04-12T01:06:13.831Z,11.00
2023-04-12T01:08:58.310Z,10.90
2023-04-12T01:11:49.205Z,10.90
2023-04-12T01:14:28.227Z,10.90
2023-04-12T01:17:00.574Z,11.10
2023-04-12T01:19:35.999Z,10.90
2023-04-12T01:22:11.658Z,10.90
2023-04-12T01:24:52.851Z,10.90
2023-04-12T01:27:54.279Z,10.80
2023-04-12T01:30:21.398Z,10.90
2023-04-12T01:32:53.281Z,11.00
2023-04-12T01:35:24.884Z,11.20
2023-04-12T01:37:52.280Z,10.90
2023-04-12T01:40:19.361Z,10.90
2023-04-12T01:42:49.526Z,10.90
2023-04-12T01:45:16.439Z,10.80
2023-04-12T01:47:45.806Z,10.90
2023-04-12T01:50:18.733Z,10.90
2023-04-12T01:53:04.799Z,10.90
2023-04-12T01:55:37.058Z,10.80
2023-04-12T01:58:07.491Z,11.10
2023-04-12T02:00:38.805Z,10.80
2023-04-12T02:03:08.031Z,10.70
2023-04-12T02:05:36.983Z,10.80
2023-04-12T02:08:04.677Z,10.80
2023-04-12T02:10:39.677Z,10.80
2023-04-12T02:13:06.529Z,10.80
2023-04-12T02:15:40.585Z,10.80
2023-04-12T02:18:07.315Z,11.80
2023-04-12T02:20:36.293Z,11.20
2023-04-12T02:23:03.052Z,11.10
2023-04-12T02:25:29.833Z,11.10
2023-04-12T02:27:58.629Z,10.90
2023-04-12T02:30:25.572Z,11.30
2023-04-12T02:32:57.857Z,10.90
2023-04-12T02:35:27.214Z,10.90
2023-04-12T02:37:58.782Z,10.80
2023-04-12T02:40:25.696Z,10.80
2023-04-12T02:42:54.649Z,10.90
2023-04-12T02:45:21.649Z,11.20
2023-04-12T02:47:48.418Z,10.80
2023-04-12T02:50:15.106Z,11.00
2023-04-12T02:52:44.031Z,10.90
2023-04-12T02:55:10.838Z,10.80
2023-04-12T02:57:37.597Z,10.80
2023-04-12T03:00:23.003Z,10.80
2023-04-12T03:05:20.806Z,10.70
2023-04-12T03:07:49.046Z,10.70
2023-04-12T03:10:20.374Z,10.70
2023-04-12T03:12:47.083Z,10.70
2023-04-12T03:15:17.694Z,10.70
2023-04-12T03:17:46.900Z,10.70
2023-04-12T03:20:20.361Z,11.10
2023-04-12T03:22:51.616Z,10.80
2023-04-12T03:25:18.681Z,10.70
2023-04-12T03:27:45.609Z,10.70
2023-04-12T03:30:12.974Z,11.20
2023-04-12T03:32:41.813Z,10.70
2023-04-12T03:35:12.007Z,10.70
2023-04-12T03:37:46.660Z,10.60
2023-04-12T03:40:13.737Z,10.60
2023-04-12T03:42:40.518Z,10.70
2023-04-12T03:45:12.184Z,10.60
2023-04-12T03:47:38.967Z,10.60
2023-04-12T03:52:36.833Z,10.60
2023-04-12T03:55:07.156Z,10.60
2023-04-12T03:57:33.977Z,10.60
2023-04-12T04:00:00.740Z,10.60
2023-04-12T04:02:27.839Z,10.60
2023-04-12T04:04:54.759Z,10.70
2023-04-12T04:07:25.735Z,10.90
2023-04-12T04:09:56.594Z,10.60
2023-04-12T04:12:23.330Z,10.60
2023-04-12T04:14:49.968Z,10.70
2023-04-12T04:17:23.675Z,10.90
2023-04-12T04:19:52.822Z,11.10
2023-04-12T04:22:21.513Z,10.60
2023-04-12T04:24:48.357Z,10.60
2023-04-12T04:27:20.437Z,10.60
2023-04-12T04:29:51.076Z,10.60
2023-04-12T04:32:17.766Z,10.60
2023-04-12T04:34:44.684Z,10.70
2023-04-12T04:37:12.389Z,10.60
2023-04-12T04:39:39.206Z,10.50
2023-04-12T04:42:06.780Z,10.50
2023-04-12T04:44:36.137Z,10.80
2023-04-12T04:47:03.566Z,11.40
2023-04-12T04:49:30.592Z,10.60
2023-04-12T04:51:57.229Z,10.90
2023-04-12T04:54:23.927Z,10.50
2023-04-12T04:56:50.544Z,10.80
2023-04-12T04:59:17.982Z,10.50
2023-04-12T05:01:44.893Z,10.50
2023-04-12T05:04:14.217Z,10.50
2023-04-12T05:06:40.964Z,10.50
2023-04-12T05:09:10.144Z,10.50
2023-04-12T05:11:37.325Z,10.80
2023-04-12T05:14:04.008Z,10.80
2023-04-12T05:16:30.798Z,10.80
2023-04-12T05:18:57.634Z,10.60
2023-04-12T05:21:24.721Z,10.60
2023-04-12T05:23:51.458Z,10.60
2023-04-12T05:26:21.604Z,10.50
2023-04-12T05:28:48.411Z,10.50
2023-04-12T05:31:15.135Z,10.60
2023-04-12T05:33:44.897Z,11.00
2023-04-12T05:36:12.594Z,10.60
2023-04-12T05:38:44.488Z,10.60
2023-04-12T05:41:11.115Z,10.70
2023-04-12T05:43:37.869Z,10.70
2023-04-12T05:46:11.395Z,10.70
2023-04-12T05:48:40.573Z,10.90
2023-04-12T05:51:11.908Z,10.80
2023-04-12T05:53:38.591Z,11.00
2023-04-12T05:56:07.787Z,11.00
2023-04-12T05:58:34.712Z,11.00
2023-04-12T06:01:01.416Z,11.20
2023-04-12T06:03:30.582Z,11.00
2023-04-12T06:06:00.284Z,11.00
2023-04-12T06:08:29.377Z,11.20
2023-04-12T06:10:58.427Z,11.10
2023-04-12T06:13:27.499Z,11.10
2023-04-12T06:15:56.507Z,11.00
2023-04-12T06:18:25.527Z,11.10
2023-04-12T06:20:52.247Z,11.10
2023-04-12T06:23:19.502Z,11.60
2023-04-12T06:25:49.125Z,11.40
2023-04-12T06:28:16.650Z,11.40
2023-04-12T06:30:45.798Z,11.30
2023-04-12T06:33:12.586Z,11.30
2023-04-12T06:35:41.762Z,11.30
2023-04-12T06:38:08.512Z,11.30
2023-04-12T06:40:37.509Z,11.50
2023-04-12T06:43:04.133Z,11.40
2023-04-12T06:45:30.948Z,11.50
2023-04-12T06:50:26.392Z,11.50
2023-04-12T06:52:53.317Z,11.60
2023-04-12T06:55:20.164Z,11.60
2023-04-12T06:57:47.182Z,11.70
2023-04-12T07:00:14.295Z,11.70
2023-04-12T07:02:41.189Z,11.70
2023-04-12T07:05:08.323Z,11.70
2023-04-12T07:07:34.954Z,11.80
2023-04-12T07:10:03.308Z,11.80
2023-04-12T07:12:30.380Z,11.90
2023-04-12T07:14:59.477Z,12.20
2023-04-12T07:17:28.839Z,12.00
2023-04-12T07:19:57.850Z,12.10
2023-04-12T07:22:24.747Z,12.30
2023-04-12T07:24:51.617Z,12.30
2023-04-12T07:27:20.873Z,12.40
2023-04-12T07:29:47.571Z,12.50
2023-04-12T07:32:14.343Z,12.70
2023-04-12T07:34:43.271Z,13.10
2023-04-12T07:37:09.934Z,12.80
2023-04-12T07:39:40.658Z,12.90
2023-04-12T07:44:38.816Z,13.20
2023-04-12T07:47:08.455Z,13.20
2023-04-12T07:52:02.602Z,13.30
2023-04-12T07:54:29.327Z,13.30
2023-04-12T07:57:00.576Z,13.30
2023-04-12T07:59:30.535Z,13.50
2023-04-12T08:02:00.656Z,13.50
2023-04-12T08:04:30.420Z,13.50
2023-04-12T08:06:57.258Z,13.50
2023-04-12T08:09:24.727Z,13.60
2023-04-12T08:11:52.216Z,13.70
2023-04-12T08:14:18.876Z,13.80
2023-04-12T08:16:48.128Z,13.80
2023-04-12T08:19:14.908Z,13.90
2023-04-12T08:21:44.130Z,14.00
2023-04-12T08:24:15.731Z,14.10
2023-04-12T08:26:42.404Z,13.90
2023-04-12T08:29:09.123Z,14.30
2023-04-12T08:31:36.048Z,14.50
2023-04-12T08:34:02.811Z,14.60
2023-04-12T08:36:31.809Z,14.70
2023-04-12T08:39:02.495Z,15.50
2023-04-12T08:41:29.461Z,15.00
2023-04-12T08:44:01.213Z,14.90
2023-04-12T08:46:32.807Z,14.90
2023-04-12T08:48:59.571Z,14.60
2023-04-12T08:51:27.053Z,14.80
2023-04-12T08:53:54.123Z,14.70
2023-04-12T08:56:22.740Z,15.20
2023-04-12T08:58:51.138Z,14.90
2023-04-12T09:01:21.266Z,15.00
2023-04-12T09:03:48.448Z,15.10
2023-04-12T09:06:15.622Z,15.20
2023-04-12T09:08:52.903Z,15.10
2023-04-12T09:11:24.734Z,15.10
2023-04-12T09:13:51.724Z,15.20
2023-04-12T09:16:21.229Z,15.30
2023-04-12T09:18:49.865Z,15.40
2023-04-12T09:21:19.029Z,15.40
2023-04-12T09:24:14.553Z,15.50
2023-04-12T09:26:41.911Z,15.60
2023-04-12T09:29:27.089Z,15.60
2023-04-12T09:32:06.192Z,15.70
2023-04-12T09:34:36.598Z,15.80
2023-04-12T09:37:16.349Z,16.00
2023-04-12T09:39:45.599Z,16.00
2023-04-12T09:42:29.678Z,16.00
2023-04-12T09:45:01.436Z,16.00
2023-04-12T09:47:39.173Z,16.10
2023-04-12T09:50:07.946Z,16.40
2023-04-12T09:52:39.035Z,16.30
2023-04-12T09:55:10.890Z,16.70
2023-04-12T09:57:43.323Z,16.50
2023-04-12T10:00:17.572Z,16.40
2023-04-12T10:02:51.681Z,16.40
2023-04-12T10:05:25.639Z,16.30
2023-04-12T10:07:55.754Z,16.40
2023-04-12T10:10:23.417Z,16.40
2023-04-12T10:12:50.731Z,16.40
2023-04-12T10:15:23.491Z,16.50
2023-04-12T10:17:54.498Z,16.70
2023-04-12T10:20:24.852Z,16.80
2023-04-12T10:22:54.422Z,17.10
2023-04-12T10:25:26.913Z,17.20
2023-04-12T10:27:56.735Z,17.60
2023-04-12T10:30:30.567Z,17.40
2023-04-12T10:33:03.638Z,17.40
2023-04-12T10:35:49.037Z,17.40
2023-04-12T10:38:16.682Z,17.40
2023-04-12T10:41:08.799Z,17.90
2023-04-12T10:43:37.890Z,17.70
2023-04-12T10:46:06.522Z,17.90
2023-04-12T10:48:39.873Z,18.10
2023-04-12T10:51:29.746Z,18.80
2023-04-12T10:54:10.816Z,18.50
2023-04-12T10:56:41.682Z,18.50
2023-04-12T10:59:12.767Z,18.70
2023-04-12T11:01:40.945Z,18.80
2023-04-12T11:04:15.011Z,18.80
2023-04-12T11:06:41.982Z,19.00
2023-04-12T11:09:22.097Z,19.00
2023-04-12T11:11:49.716Z,19.20
2023-04-12T11:14:20.487Z,19.30
2023-04-12T11:17:05.911Z,19.40
2023-04-12T11:19:48.289Z,19.40
2023-04-12T11:22:19.260Z,19.20
2023-04-12T11:24:51.282Z,18.90
2023-04-12T11:27:22.133Z,19.00
2023-04-12T11:29:55.691Z,19.10
2023-04-12T11:32:24.975Z,19.30
2023-04-12T11:34:51.906Z,19.50
2023-04-12T11:37:20.574Z,19.60
2023-04-12T11:39:49.753Z,19.60
2023-04-12T11:42:18.882Z,19.70
2023-04-12T11:47:20.898Z,19.70
2023-04-12T11:49:52.784Z,19.50
2023-04-12T11:52:20.868Z,19.30
2023-04-12T11:54:51.307Z,19.30
2023-04-12T11:57:19.261Z,19.30
2023-04-12T11:59:53.144Z,19.30
2023-04-12T12:02:24.510Z,19.40
2023-04-12T12:04:52.793Z,19.30
2023-04-12T12:07:27.899Z,19.40
2023-04-12T12:09:57.562Z,19.50
2023-04-12T12:12:30.020Z,19.60
2023-04-12T12:15:02.196Z,19.80
2023-04-12T12:17:29.106Z,19.90
2023-04-12T12:19:59.461Z,20.00
2023-04-12T12:22:26.274Z,20.00
2023-04-12T12:24:58.825Z,20.10
2023-04-12T12:27:35.571Z,20.40
2023-04-12T12:30:05.470Z,20.60
2023-04-12T12:32:37.166Z,20.60
2023-04-12T12:35:09.540Z,20.70
2023-04-12T12:37:36.550Z,20.60
2023-04-12T12:40:21.382Z,20.50
2023-04-12T12:42:58.882Z,20.30
2023-04-12T12:45:28.933Z,20.00
2023-04-12T12:48:05.026Z,19.80
2023-04-12T12:50:34.416Z,19.80
2023-04-12T12:53:05.599Z,20.10
2023-04-12T12:55:32.778Z,20.30
2023-04-12T12:58:07.878Z,20.70
2023-04-12T13:00:37.567Z,20.50
2023-04-12T13:03:04.741Z,20.40
2023-04-12T13:05:34.052Z,19.80
2023-04-12T13:08:00.711Z,19.60
2023-04-12T13:10:29.624Z,19.10
2023-04-12T13:12:56.427Z,19.30
2023-04-12T13:15:24.692Z,19.30
2023-04-12T13:17:55.246Z,19.30
2023-04-12T13:20:22.829Z,19.50
2023-04-12T13:22:54.220Z,19.70
2023-04-12T13:25:23.527Z,19.70
2023-04-12T13:27:51.401Z,19.90
2023-04-12T13:30:19.694Z,19.80
2023-04-12T13:32:46.700Z,19.80
2023-04-12T13:35:13.665Z,19.70
2023-04-12T13:37:40.520Z,19.80
2023-04-12T13:40:09.834Z,19.80
2023-04-12T13:42:36.560Z,19.80
2023-04-12T13:45:04.519Z,19.70
2023-04-12T13:47:33.938Z,19.60
2023-04-12T13:50:05.688Z,19.40
2023-04-12T13:52:32.808Z,19.30
2023-04-12T13:54:59.683Z,19.20
2023-04-12T13:57:28.749Z,18.90
2023-04-12T13:59:55.529Z,18.80
2023-04-12T14:02:25.082Z,19.00
2023-04-12T14:04:53.364Z,19.50
2023-04-12T14:07:24.805Z,19.70
2023-04-12T14:09:51.457Z,20.00
2023-04-12T14:14:45.249Z,20.40
2023-04-12T14:17:12.016Z,20.30
2023-04-12T14:19:41.037Z,20.50
2023-04-12T14:22:07.680Z,20.30
2023-04-12T14:24:37.005Z,20.00
2023-04-12T14:27:04.531Z,20.00
2023-04-12T14:29:31.224Z,19.70
2023-04-12T14:31:57.867Z,20.10
2023-04-12T14:34:24.555Z,20.10
2023-04-12T14:36:51.410Z,20.10
2023-04-12T14:39:18.137Z,20.00
2023-04-12T14:41:44.831Z,19.70
2023-04-12T14:44:14.061Z,19.50
2023-04-12T14:46:45.184Z,19.50
2023-04-12T14:49:11.968Z,19.30
2023-04-12T14:51:38.628Z,19.10
2023-04-12T14:54:07.460Z,18.80
2023-04-12T14:56:43.660Z,18.60
2023-04-12T14:59:13.974Z,18.40
2023-04-12T15:01:41.535Z,18.10
2023-04-12T15:04:09.043Z,17.80
2023-04-12T15:06:42.154Z,17.40
2023-04-12T15:09:11.460Z,17.00
2023-04-12T15:11:46.096Z,16.70
2023-04-12T15:14:19.750Z,16.30
2023-04-12T15:16:49.566Z,16.00
2023-04-12T15:19:22.244Z,16.10
2023-04-12T15:21:54.979Z,15.90
2023-04-12T15:24:22.591Z,15.80
2023-04-12T15:26:51.502Z,15.80
2023-04-12T15:29:19.981Z,15.80
2023-04-12T15:31:46.981Z,15.80
2023-04-12T15:34:14.228Z,15.80
2023-04-12T15:36:46.214Z,15.80
2023-04-12T15:39:13.768Z,15.80
2023-04-12T15:41:41.709Z,15.90
2023-04-12T15:44:09.838Z,16.00
2023-04-12T15:46:36.654Z,16.20
2023-04-12T15:49:03.873Z,16.10
2023-04-12T15:51:32.014Z,16.60
2023-04-12T15:53:59.032Z,16.90
2023-04-12T15:56:25.951Z,17.10
2023-04-12T15:58:53.936Z,17.50
2023-04-12T16:01:20.831Z,17.70
2023-04-12T16:03:51.328Z,17.80
2023-04-12T16:06:20.663Z,17.80
2023-04-12T16:08:50.322Z,17.90
2023-04-12T16:11:18.662Z,17.50
2023-04-12T16:13:48.011Z,17.30
2023-04-12T16:16:22.544Z,17.20
2023-04-12T16:18:49.564Z,17.20
2023-04-12T16:21:20.071Z,17.10
2023-04-12T16:23:48.377Z,17.10
2023-04-12T16:26:27.571Z,17.10
2023-04-12T16:28:57.220Z,17.40
2023-04-12T16:31:26.541Z,17.10
2023-04-12T16:33:54.801Z,17.00
2023-04-12T16:36:24.289Z,17.00
2023-04-12T16:38:55.181Z,17.00
2023-04-12T16:41:22.254Z,16.90
2023-04-12T16:46:21.001Z,16.80
2023-04-12T16:48:50.089Z,16.70
2023-04-12T16:51:17.282Z,16.50
2023-04-12T16:53:44.141Z,16.40
2023-04-12T16:56:10.786Z,16.20
2023-04-12T16:58:40.087Z,16.00
2023-04-12T17:01:07.868Z,16.00
2023-04-12T17:03:35.139Z,15.80
2023-04-12T17:06:02.076Z,15.60
2023-04-12T17:08:28.835Z,15.50
2023-04-12T17:10:55.544Z,15.60
2023-04-12T17:13:24.728Z,15.40
2023-04-12T17:15:51.517Z,15.30
2023-04-12T17:18:18.442Z,15.50
2023-04-12T17:20:49.978Z,15.00
2023-04-12T17:23:19.029Z,15.00
2023-04-12T17:25:48.387Z,14.90
2023-04-12T17:28:15.281Z,14.80
2023-04-12T17:30:44.389Z,14.90
2023-04-12T17:33:13.548Z,14.60
2023-04-12T17:35:42.464Z,14.50
2023-04-12T17:38:09.201Z,14.50
2023-04-12T17:40:38.421Z,14.30
2023-04-12T17:45:33.802Z,14.40
2023-04-12T17:50:27.909Z,14.30
2023-04-12T17:52:58.381Z,14.20
2023-04-12T17:55:25.895Z,14.10
2023-04-12T17:57:55.350Z,14.00
2023-04-12T18:00:24.351Z,14.00
2023-04-12T18:02:51.412Z,14.00
2023-04-12T18:05:23.485Z,13.90
2023-04-12T18:07:50.228Z,13.80
2023-04-12T18:10:21.160Z,13.70
2023-04-12T18:12:48.513Z,13.40
2023-04-12T18:15:20.159Z,13.50
2023-04-12T18:17:46.944Z,13.50
2023-04-12T18:20:14.088Z,13.40
2023-04-12T18:22:40.969Z,13.30
2023-04-12T18:25:11.583Z,13.30
2023-04-12T18:27:38.373Z,13.30
2023-04-12T18:30:05.603Z,13.20
2023-04-12T18:32:34.583Z,13.20
2023-04-12T18:35:01.939Z,13.10
2023-04-12T18:37:28.704Z,13.10
2023-04-12T18:39:57.893Z,13.10
2023-04-12T18:42:24.777Z,13.10
2023-04-12T18:44:56.413Z,13.10
2023-04-12T18:47:23.240Z,12.90
2023-04-12T18:49:50.025Z,12.90
2023-04-12T18:52:16.731Z,12.90
2023-04-12T18:54:47.859Z,12.90
2023-04-12T18:57:15.671Z,12.90
2023-04-12T18:59:44.743Z,12.80
2023-04-12T19:02:12.500Z,12.80
2023-04-12T19:04:41.170Z,12.60
2023-04-12T19:07:08.174Z,12.70
2023-04-12T19:09:34.953Z,12.80
2023-04-12T19:12:05.324Z,12.80
2023-04-12T19:14:32.089Z,12.70
2023-04-12T19:16:58.814Z,12.70
2023-04-12T19:19:27.955Z,12.80
2023-04-12T19:21:54.998Z,12.90
2023-04-12T19:24:24.436Z,12.60
2023-04-12T19:26:51.388Z,12.60
2023-04-12T19:29:19.621Z,12.60
2023-04-12T19:31:51.920Z,13.80
2023-04-12T19:34:18.678Z,12.50
2023-04-12T19:39:12.746Z,12.50
2023-04-12T19:41:41.981Z,12.50
2023-04-12T19:44:11.206Z,12.50
2023-04-12T19:46:38.968Z,12.40
2023-04-12T19:51:35.176Z,12.40
2023-04-12T19:54:04.078Z,12.40
2023-04-12T19:56:31.440Z,12.40
2023-04-12T19:58:58.470Z,12.40
2023-04-12T20:01:30.229Z,12.40
2023-04-12T20:03:59.189Z,12.40
2023-04-12T20:06:28.780Z,12.50
2023-04-12T20:08:57.921Z,12.30
2023-04-12T20:11:27.252Z,12.30
2023-04-12T20:13:56.508Z,13.10
2023-04-12T20:16:25.892Z,12.30
2023-04-12T20:18:57.561Z,12.30
2023-04-12T20:21:27.769Z,12.20
2023-04-12T20:23:54.569Z,12.40
2023-04-12T20:26:21.308Z,12.20
2023-04-12T20:28:48.746Z,12.10
2023-04-12T20:31:15.979Z,12.00
2023-04-12T20:33:43.055Z,12.00
2023-04-12T20:36:13.212Z,12.00
2023-04-12T20:38:40.558Z,11.90
2023-04-12T20:41:07.280Z,11.80
2023-04-12T20:43:41.151Z,11.90
2023-04-12T20:46:14.507Z,11.70
2023-04-12T20:48:43.076Z,11.60
2023-04-12T20:51:13.734Z,11.50
2023-04-12T20:53:41.005Z,11.50
2023-04-12T20:56:10.272Z,11.50
2023-04-12T20:58:37.823Z,11.50
2023-04-12T21:01:06.032Z,11.40
2023-04-12T21:03:33.698Z,11.40
2023-04-12T21:06:01.761Z,11.50
2023-04-12T21:08:33.669Z,11.40
2023-04-12T21:11:02.622Z,11.40
2023-04-12T21:13:33.341Z,11.40
2023-04-12T21:16:02.295Z,11.30
2023-04-12T21:18:29.068Z,11.30
2023-04-12T21:21:01.606Z,11.30
2023-04-12T21:23:32.954Z,11.20
2023-04-12T21:25:59.607Z,11.30
2023-04-12T21:28:26.316Z,11.10
2023-04-12T21:30:55.241Z,11.30
2023-04-12T21:33:25.203Z,11.10
2023-04-12T21:35:55.590Z,11.10
2023-04-12T21:38:25.061Z,10.80
2023-04-12T21:40:51.998Z,11.10
2023-04-12T21:43:18.969Z,11.00
2023-04-12T21:45:46.069Z,11.00
2023-04-12T21:48:14.653Z,11.00
2023-04-12T21:50:41.893Z,10.90
2023-04-12T21:53:11.148Z,10.90
2023-04-12T21:55:37.904Z,10.90
2023-04-12T21:58:07.176Z,10.80
2023-04-12T22:00:36.926Z,10.90
2023-04-12T22:03:04.192Z,10.80
2023-04-12T22:05:33.329Z,10.80
2023-04-12T22:08:00.117Z,10.70
2023-04-12T22:10:27.364Z,10.70
2023-04-12T22:12:54.040Z,10.60
2023-04-12T22:15:20.849Z,11.20
2023-04-12T22:17:48.299Z,10.60
2023-04-12T22:20:17.761Z,10.60
2023-04-12T22:22:44.520Z,10.70
2023-04-12T22:25:15.131Z,10.70
2023-04-12T22:27:47.790Z,10.70
2023-04-12T22:30:16.668Z,10.70
2023-04-12T22:32:43.655Z,10.60
2023-04-12T22:35:10.698Z,10.60
2023-04-12T22:37:39.067Z,10.70
2023-04-12T22:40:11.297Z,10.80
2023-04-12T22:42:45.861Z,10.50
2023-04-12T22:45:16.242Z,10.50
2023-04-12T22:47:44.137Z,10.40
2023-04-12T22:50:12.586Z,10.90
2023-04-12T22:52:40.191Z,10.30
2023-04-12T22:55:14.478Z,10.30
2023-04-12T22:57:46.917Z,10.30
2023-04-12T23:00:16.993Z,10.30
2023-04-12T23:02:45.822Z,10.20
2023-04-12T23:05:13.861Z,10.20
2023-04-12T23:07:43.518Z,10.10
2023-04-12T23:10:12.812Z,10.00
2023-04-12T23:12:42.013Z,10.00
2023-04-12T23:15:09.397Z,10.10
2023-04-12T23:17:36.801Z,9.80
2023-04-12T23:20:10.017Z,9.80
2023-04-12T23:22:56.864Z,9.80
2023-04-12T23:25:39.040Z,9.70
2023-04-12T23:28:14.556Z,9.80
2023-04-12T23:30:49.845Z,9.80
2023-04-12T23:33:25.074Z,9.60
2023-04-12T23:35:53.042Z,9.60
2023-04-12T23:38:24.230Z,9.60
2023-04-12T23:40:54.240Z,9.80
2023-04-12T23:43:28.158Z,9.40
2023-04-12T23:45:57.700Z,9.40
2023-04-12T23:48:27.200Z,9.30
2023-04-12T23:50:56.647Z,9.20
2023-04-12T23:53:25.834Z,9.40
2023-04-12T23:55:55.508Z,9.30
2023-04-12T23:58:22.306Z,9.30
